sensor_id;sensor_type;location;lat;lon;timestamp;P1;durP1;ratioP1;P2;durP2;ratioP2
85210;SDS011;75591;44.496;0.166;2024-01-15T00:07:11;54.70;;;24.60;;
85210;SDS011;75591;44.496;0.166;2024-01-15T00:22:32;56.23;;;25.77;;
85210;SDS011;75591;44.496;0.166;2024-01-15T00:37:51;46.73;;;20.47;;
85210;SDS011;75591;44.496;0.166;2024-01-15T00:53:12;59.37;;;24.63;;
85210;SDS011;75591;44.496;0.166;2024-01-15T01:08:31;62.13;;;29.10;;
85210;SDS011;75591;44.496;0.166;2024-01-15T01:23:53;72.03;;;32.57;;
85210;SDS011;75591;44.496;0.166;2024-01-15T01:39:11;58.40;;;24.57;;
85210;SDS011;75591;44.496;0.166;2024-01-15T01:54:31;48.03;;;21.33;;
85210;SDS011;75591;44.496;0.166;2024-01-15T02:09:51;43.33;;;18.60;;
85210;SDS011;75591;44.496;0.166;2024-01-15T02:25:13;47.70;;;20.83;;
85210;SDS011;75591;44.496;0.166;2024-01-15T02:40:30;47.70;;;21.77;;
85210;SDS011;75591;44.496;0.166;2024-01-15T02:55:48;44.57;;;21.07;;
85210;SDS011;75591;44.496;0.166;2024-01-15T03:11:09;37.30;;;17.97;;
85210;SDS011;75591;44.496;0.166;2024-01-15T03:26:23;57.00;;;29.60;;
85210;SDS011;75591;44.496;0.166;2024-01-15T03:41:43;56.47;;;28.03;;
85210;SDS011;75591;44.496;0.166;2024-01-15T03:57:04;53.50;;;23.67;;
85210;SDS011;75591;44.496;0.166;2024-01-15T04:12:22;51.43;;;21.57;;
85210;SDS011;75591;44.496;0.166;2024-01-15T04:27:41;41.97;;;18.43;;
85210;SDS011;75591;44.496;0.166;2024-01-15T04:43:01;40.83;;;20.33;;
85210;SDS011;75591;44.496;0.166;2024-01-15T04:58:22;31.93;;;13.30;;
85210;SDS011;75591;44.496;0.166;2024-01-15T05:13:41;34.63;;;16.93;;
85210;SDS011;75591;44.496;0.166;2024-01-15T05:29:01;40.20;;;15.83;;
85210;SDS011;75591;44.496;0.166;2024-01-15T05:44:21;41.63;;;19.70;;
85210;SDS011;75591;44.496;0.166;2024-01-15T05:59:42;35.70;;;16.97;;
85210;SDS011;75591;44.496;0.166;2024-01-15T06:15:00;24.37;;;11.70;;
85210;SDS011;75591;44.496;0.166;2024-01-15T06:30:20;56.43;;;25.03;;
85210;SDS011;75591;44.496;0.166;2024-01-15T06:45:38;45.43;;;20.47;;
85210;SDS011;75591;44.496;0.166;2024-01-15T07:00:58;44.53;;;21.53;;
85210;SDS011;75591;44.496;0.166;2024-01-15T07:16:18;45.03;;;22.30;;
85210;SDS011;75591;44.496;0.166;2024-01-15T07:31:37;37.47;;;17.97;;
85210;SDS011;75591;44.496;0.166;2024-01-15T07:46:55;50.70;;;20.67;;
85210;SDS011;75591;44.496;0.166;2024-01-15T08:02:14;46.67;;;20.73;;
85210;SDS011;75591;44.496;0.166;2024-01-15T08:17:34;41.77;;;18.23;;
85210;SDS011;75591;44.496;0.166;2024-01-15T08:32:53;34.50;;;18.43;;
85210;SDS011;75591;44.496;0.166;2024-01-15T08:48:13;41.27;;;19.13;;
85210;SDS011;75591;44.496;0.166;2024-01-15T09:03:34;54.40;;;25.00;;
85210;SDS011;75591;44.496;0.166;2024-01-15T09:18:51;46.33;;;21.77;;
85210;SDS011;75591;44.496;0.166;2024-01-15T09:34:12;37.50;;;19.33;;
85210;SDS011;75591;44.496;0.166;2024-01-15T09:49:30;63.60;;;25.03;;
85210;SDS011;75591;44.496;0.166;2024-01-15T10:04:50;37.97;;;14.93;;
85210;SDS011;75591;44.496;0.166;2024-01-15T10:20:11;39.20;;;15.23;;
85210;SDS011;75591;44.496;0.166;2024-01-15T10:35:30;42.37;;;18.33;;
85210;SDS011;75591;44.496;0.166;2024-01-15T10:50:50;59.03;;;22.70;;
85210;SDS011;75591;44.496;0.166;2024-01-15T11:06:16;51.50;;;21.90;;
85210;SDS011;75591;44.496;0.166;2024-01-15T11:21:30;47.07;;;17.90;;
85210;SDS011;75591;44.496;0.166;2024-01-15T11:52:09;43.13;;;20.53;;
85210;SDS011;75591;44.496;0.166;2024-01-15T12:07:29;41.77;;;18.20;;
85210;SDS011;75591;44.496;0.166;2024-01-15T12:22:49;46.40;;;20.63;;
85210;SDS011;75591;44.496;0.166;2024-01-15T12:38:10;41.80;;;21.43;;
85210;SDS011;75591;44.496;0.166;2024-01-15T12:53:29;51.87;;;21.77;;
85210;SDS011;75591;44.496;0.166;2024-01-15T13:08:48;51.47;;;22.63;;
85210;SDS011;75591;44.496;0.166;2024-01-15T13:24:06;51.63;;;22.20;;
85210;SDS011;75591;44.496;0.166;2024-01-15T13:39:25;66.57;;;25.77;;
85210;SDS011;75591;44.496;0.166;2024-01-15T13:54:45;49.10;;;19.83;;
85210;SDS011;75591;44.496;0.166;2024-01-15T14:10:05;83.93;;;26.13;;
85210;SDS011;75591;44.496;0.166;2024-01-15T14:25:24;102.10;;;23.90;;
85210;SDS011;75591;44.496;0.166;2024-01-15T14:40:44;63.53;;;19.17;;
85210;SDS011;75591;44.496;0.166;2024-01-15T14:56:03;81.73;;;22.07;;
85210;SDS011;75591;44.496;0.166;2024-01-15T15:11:20;73.27;;;19.50;;
85210;SDS011;75591;44.496;0.166;2024-01-15T15:26:39;97.07;;;20.00;;
85210;SDS011;75591;44.496;0.166;2024-01-15T15:41:58;105.77;;;22.10;;
85210;SDS011;75591;44.496;0.166;2024-01-15T15:57:19;98.03;;;25.30;;
85210;SDS011;75591;44.496;0.166;2024-01-15T16:12:39;104.80;;;28.43;;
85210;SDS011;75591;44.496;0.166;2024-01-15T16:27:59;123.20;;;32.90;;
85210;SDS011;75591;44.496;0.166;2024-01-15T16:43:17;112.53;;;28.20;;
85210;SDS011;75591;44.496;0.166;2024-01-15T16:58:36;91.70;;;24.73;;
85210;SDS011;75591;44.496;0.166;2024-01-15T17:13:55;88.27;;;26.53;;
85210;SDS011;75591;44.496;0.166;2024-01-15T17:29:15;64.67;;;21.27;;
85210;SDS011;75591;44.496;0.166;2024-01-15T17:44:32;55.93;;;21.60;;
85210;SDS011;75591;44.496;0.166;2024-01-15T17:59:53;78.53;;;25.03;;
85210;SDS011;75591;44.496;0.166;2024-01-15T18:15:12;65.70;;;22.97;;
85210;SDS011;75591;44.496;0.166;2024-01-15T18:30:33;72.67;;;23.70;;
85210;SDS011;75591;44.496;0.166;2024-01-15T18:45:53;91.27;;;30.07;;
85210;SDS011;75591;44.496;0.166;2024-01-15T19:01:24;85.80;;;25.40;;
85210;SDS011;75591;44.496;0.166;2024-01-15T19:16:31;53.87;;;17.80;;
85210;SDS011;75591;44.496;0.166;2024-01-15T19:31:50;68.50;;;26.23;;
85210;SDS011;75591;44.496;0.166;2024-01-15T19:47:10;116.97;;;30.47;;
85210;SDS011;75591;44.496;0.166;2024-01-15T20:02:29;68.50;;;25.53;;
85210;SDS011;75591;44.496;0.166;2024-01-15T20:17:48;98.73;;;29.37;;
85210;SDS011;75591;44.496;0.166;2024-01-15T20:33:07;79.10;;;25.73;;
85210;SDS011;75591;44.496;0.166;2024-01-15T20:48:28;49.17;;;19.87;;
85210;SDS011;75591;44.496;0.166;2024-01-15T21:03:46;43.93;;;15.07;;
85210;SDS011;75591;44.496;0.166;2024-01-15T21:19:07;53.17;;;16.43;;
85210;SDS011;75591;44.496;0.166;2024-01-15T21:34:25;45.23;;;15.60;;
85210;SDS011;75591;44.496;0.166;2024-01-15T21:49:44;44.87;;;15.37;;
85210;SDS011;75591;44.496;0.166;2024-01-15T22:05:05;48.43;;;16.70;;
85210;SDS011;75591;44.496;0.166;2024-01-15T22:20:24;70.43;;;18.00;;
85210;SDS011;75591;44.496;0.166;2024-01-15T22:35:44;71.07;;;18.80;;
85210;SDS011;75591;44.496;0.166;2024-01-15T22:51:04;121.53;;;24.03;;
85210;SDS011;75591;44.496;0.166;2024-01-15T23:06:22;97.47;;;21.53;;
85210;SDS011;75591;44.496;0.166;2024-01-15T23:21:41;71.20;;;19.73;;
85210;SDS011;75591;44.496;0.166;2024-01-15T23:37:03;95.77;;;21.83;;
85210;SDS011;75591;44.496;0.166;2024-01-15T23:52:22;97.60;;;22.00;;
